sensor_id;sensor_type;location;lat;lon;timestamp;P1;durP1;ratioP1;P2;durP2;ratioP2
69305;SDS011;56427;51.580;4.656;2023-02-18T00:01:51;57.60;;;21.97;;
69305;SDS011;56427;51.580;4.656;2023-02-18T00:04:16;60.50;;;22.10;;
69305;SDS011;56427;51.580;4.656;2023-02-18T00:06:41;52.55;;;21.08;;
69305;SDS011;56427;51.580;4.656;2023-02-18T00:09:07;56.07;;;22.30;;
69305;SDS011;56427;51.580;4.656;2023-02-18T00:11:33;62.47;;;22.20;;
69305;SDS011;56427;51.580;4.656;2023-02-18T00:14:01;64.05;;;24.10;;
69305;SDS011;56427;51.580;4.656;2023-02-18T00:16:28;59.30;;;22.85;;
69305;SDS011;56427;51.580;4.656;2023-02-18T00:18:55;62.83;;;22.05;;
69305;SDS011;56427;51.580;4.656;2023-02-18T00:21:25;58.95;;;23.63;;
69305;SDS011;56427;51.580;4.656;2023-02-18T00:23:51;62.23;;;22.90;;
69305;SDS011;56427;51.580;4.656;2023-02-18T00:26:17;58.25;;;22.00;;
69305;SDS011;56427;51.580;4.656;2023-02-18T00:28:44;62.83;;;21.75;;
69305;SDS011;56427;51.580;4.656;2023-02-18T00:31:11;59.97;;;24.92;;
69305;SDS011;56427;51.580;4.656;2023-02-18T00:33:38;63.28;;;23.77;;
69305;SDS011;56427;51.580;4.656;2023-02-18T00:36:04;64.27;;;22.33;;
69305;SDS011;56427;51.580;4.656;2023-02-18T00:38:32;66.55;;;22.77;;
69305;SDS011;56427;51.580;4.656;2023-02-18T00:40:58;67.05;;;24.25;;
69305;SDS011;56427;51.580;4.656;2023-02-18T00:43:24;67.15;;;25.25;;
69305;SDS011;56427;51.580;4.656;2023-02-18T00:45:51;64.35;;;22.23;;
69305;SDS011;56427;51.580;4.656;2023-02-18T00:48:17;67.13;;;22.77;;
69305;SDS011;56427;51.580;4.656;2023-02-18T00:50:43;64.00;;;23.60;;
69305;SDS011;56427;51.580;4.656;2023-02-18T00:53:09;66.73;;;22.77;;
69305;SDS011;56427;51.580;4.656;2023-02-18T00:55:38;59.42;;;21.85;;
69305;SDS011;56427;51.580;4.656;2023-02-18T00:58:04;60.97;;;20.73;;
69305;SDS011;56427;51.580;4.656;2023-02-18T01:00:29;62.20;;;20.83;;
69305;SDS011;56427;51.580;4.656;2023-02-18T01:02:55;51.97;;;21.37;;
69305;SDS011;56427;51.580;4.656;2023-02-18T01:05:20;53.90;;;20.27;;
69305;SDS011;56427;51.580;4.656;2023-02-18T01:07:46;52.70;;;20.30;;
69305;SDS011;56427;51.580;4.656;2023-02-18T01:10:11;52.92;;;19.67;;
69305;SDS011;56427;51.580;4.656;2023-02-18T01:12:37;54.43;;;20.50;;
69305;SDS011;56427;51.580;4.656;2023-02-18T01:15:04;51.33;;;19.85;;
69305;SDS011;56427;51.580;4.656;2023-02-18T01:17:31;55.83;;;19.73;;
69305;SDS011;56427;51.580;4.656;2023-02-18T01:19:56;50.03;;;20.10;;
69305;SDS011;56427;51.580;4.656;2023-02-18T01:22:21;51.10;;;19.50;;
69305;SDS011;56427;51.580;4.656;2023-02-18T01:24:47;49.13;;;19.27;;
69305;SDS011;56427;51.580;4.656;2023-02-18T01:27:12;55.33;;;20.27;;
69305;SDS011;56427;51.580;4.656;2023-02-18T01:29:38;54.40;;;19.90;;
69305;SDS011;56427;51.580;4.656;2023-02-18T01:32:03;55.33;;;20.97;;
69305;SDS011;56427;51.580;4.656;2023-02-18T01:34:32;49.72;;;19.38;;
69305;SDS011;56427;51.580;4.656;2023-02-18T01:36:58;53.85;;;19.77;;
69305;SDS011;56427;51.580;4.656;2023-02-18T01:39:23;51.70;;;20.93;;
69305;SDS011;56427;51.580;4.656;2023-02-18T01:41:49;44.73;;;18.37;;
69305;SDS011;56427;51.580;4.656;2023-02-18T01:44:17;51.17;;;20.70;;
69305;SDS011;56427;51.580;4.656;2023-02-18T01:46:45;49.00;;;19.45;;
69305;SDS011;56427;51.580;4.656;2023-02-18T01:49:11;51.47;;;21.00;;
69305;SDS011;56427;51.580;4.656;2023-02-18T01:51:42;51.17;;;20.48;;
69305;SDS011;56427;51.580;4.656;2023-02-18T01:54:31;57.33;;;21.53;;
69305;SDS011;56427;51.580;4.656;2023-02-18T01:57:10;59.67;;;22.25;;
69305;SDS011;56427;51.580;4.656;2023-02-18T01:59:42;59.55;;;22.23;;
69305;SDS011;56427;51.580;4.656;2023-02-18T02:02:11;54.72;;;21.63;;
69305;SDS011;56427;51.580;4.656;2023-02-18T02:04:39;53.85;;;21.13;;
69305;SDS011;56427;51.580;4.656;2023-02-18T02:07:05;46.90;;;20.23;;
69305;SDS011;56427;51.580;4.656;2023-02-18T02:09:31;54.35;;;21.25;;
69305;SDS011;56427;51.580;4.656;2023-02-18T02:34:45;51.67;;;19.45;;
69305;SDS011;56427;51.580;4.656;2023-02-18T02:39:54;51.33;;;17.92;;
69305;SDS011;56427;51.580;4.656;2023-02-18T02:45:51;56.73;;;20.60;;
69305;SDS011;56427;51.580;4.656;2023-02-18T02:51:01;57.22;;;20.15;;
69305;SDS011;56427;51.580;4.656;2023-02-18T02:53:32;69.28;;;21.00;;
69305;SDS011;56427;51.580;4.656;2023-02-18T02:55:59;56.63;;;20.20;;
69305;SDS011;56427;51.580;4.656;2023-02-18T02:58:24;59.30;;;20.93;;
69305;SDS011;56427;51.580;4.656;2023-02-18T03:09:02;66.28;;;19.67;;
69305;SDS011;56427;51.580;4.656;2023-02-18T03:11:49;51.90;;;17.92;;
69305;SDS011;56427;51.580;4.656;2023-02-18T03:14:27;47.27;;;16.27;;
69305;SDS011;56427;51.580;4.656;2023-02-18T03:19:54;48.22;;;15.75;;
69305;SDS011;56427;51.580;4.656;2023-02-18T03:22:28;46.78;;;16.95;;
69305;SDS011;56427;51.580;4.656;2023-02-18T03:24:57;46.92;;;15.38;;
69305;SDS011;56427;51.580;4.656;2023-02-18T03:30:07;40.90;;;15.60;;
69305;SDS011;56427;51.580;4.656;2023-02-18T03:32:35;40.92;;;14.38;;
69305;SDS011;56427;51.580;4.656;2023-02-18T03:35:04;44.53;;;15.10;;
69305;SDS011;56427;51.580;4.656;2023-02-18T03:37:33;40.42;;;15.77;;
69305;SDS011;56427;51.580;4.656;2023-02-18T03:40:04;41.97;;;16.40;;
69305;SDS011;56427;51.580;4.656;2023-02-18T03:42:31;45.70;;;15.47;;
69305;SDS011;56427;51.580;4.656;2023-02-18T03:44:57;37.72;;;15.38;;
69305;SDS011;56427;51.580;4.656;2023-02-18T03:47:23;41.00;;;14.50;;
69305;SDS011;56427;51.580;4.656;2023-02-18T03:49:49;40.50;;;14.30;;
69305;SDS011;56427;51.580;4.656;2023-02-18T03:52:14;32.70;;;14.23;;
69305;SDS011;56427;51.580;4.656;2023-02-18T03:54:39;27.60;;;11.88;;
69305;SDS011;56427;51.580;4.656;2023-02-18T03:57:04;30.45;;;11.80;;
69305;SDS011;56427;51.580;4.656;2023-02-18T03:59:30;29.17;;;11.30;;
69305;SDS011;56427;51.580;4.656;2023-02-18T04:01:55;29.77;;;12.87;;
69305;SDS011;56427;51.580;4.656;2023-02-18T04:04:20;24.43;;;10.60;;
69305;SDS011;56427;51.580;4.656;2023-02-18T04:06:46;31.23;;;11.83;;
69305;SDS011;56427;51.580;4.656;2023-02-18T04:09:11;27.80;;;11.02;;
69305;SDS011;56427;51.580;4.656;2023-02-18T04:11:37;29.63;;;10.87;;
69305;SDS011;56427;51.580;4.656;2023-02-18T04:14:04;28.27;;;10.90;;
69305;SDS011;56427;51.580;4.656;2023-02-18T04:16:30;29.87;;;10.57;;
69305;SDS011;56427;51.580;4.656;2023-02-18T04:18:56;26.65;;;10.45;;
69305;SDS011;56427;51.580;4.656;2023-02-18T04:21:21;33.10;;;11.17;;
69305;SDS011;56427;51.580;4.656;2023-02-18T04:23:46;28.83;;;10.33;;
69305;SDS011;56427;51.580;4.656;2023-02-18T04:26:12;29.07;;;10.20;;
69305;SDS011;56427;51.580;4.656;2023-02-18T04:28:37;26.30;;;9.50;;
69305;SDS011;56427;51.580;4.656;2023-02-18T04:31:03;27.27;;;9.30;;
69305;SDS011;56427;51.580;4.656;2023-02-18T04:33:28;26.03;;;9.63;;
69305;SDS011;56427;51.580;4.656;2023-02-18T04:35:54;29.80;;;9.50;;
69305;SDS011;56427;51.580;4.656;2023-02-18T04:38:19;23.57;;;8.40;;
69305;SDS011;56427;51.580;4.656;2023-02-18T04:40:44;23.02;;;9.02;;
69305;SDS011;56427;51.580;4.656;2023-02-18T04:43:10;26.37;;;8.63;;
69305;SDS011;56427;51.580;4.656;2023-02-18T04:45:35;26.60;;;9.37;;
69305;SDS011;56427;51.580;4.656;2023-02-18T04:48:01;28.13;;;9.47;;
69305;SDS011;56427;51.580;4.656;2023-02-18T04:50:26;23.92;;;8.57;;
69305;SDS011;56427;51.580;4.656;2023-02-18T04:52:52;20.70;;;8.03;;
69305;SDS011;56427;51.580;4.656;2023-02-18T04:55:17;22.53;;;7.83;;
69305;SDS011;56427;51.580;4.656;2023-02-18T04:57:42;22.30;;;9.10;;
69305;SDS011;56427;51.580;4.656;2023-02-18T05:00:08;23.50;;;8.27;;
69305;SDS011;56427;51.580;4.656;2023-02-18T05:02:37;20.55;;;7.60;;
69305;SDS011;56427;51.580;4.656;2023-02-18T05:05:03;20.40;;;7.30;;
69305;SDS011;56427;51.580;4.656;2023-02-18T05:07:28;20.00;;;7.07;;
69305;SDS011;56427;51.580;4.656;2023-02-18T05:09:54;24.93;;;7.63;;
69305;SDS011;56427;51.580;4.656;2023-02-18T05:12:19;22.07;;;7.63;;
69305;SDS011;56427;51.580;4.656;2023-02-18T05:14:44;22.10;;;7.67;;
69305;SDS011;56427;51.580;4.656;2023-02-18T05:17:10;22.90;;;8.60;;
69305;SDS011;56427;51.580;4.656;2023-02-18T05:19:35;28.70;;;8.43;;
69305;SDS011;56427;51.580;4.656;2023-02-18T05:22:00;26.93;;;8.93;;
69305;SDS011;56427;51.580;4.656;2023-02-18T05:24:26;31.77;;;11.87;;
69305;SDS011;56427;51.580;4.656;2023-02-18T05:26:51;35.38;;;12.05;;
69305;SDS011;56427;51.580;4.656;2023-02-18T05:29:16;37.87;;;12.90;;
69305;SDS011;56427;51.580;4.656;2023-02-18T05:31:42;36.00;;;13.33;;
69305;SDS011;56427;51.580;4.656;2023-02-18T05:34:07;32.27;;;10.70;;
69305;SDS011;56427;51.580;4.656;2023-02-18T05:36:32;35.67;;;12.33;;
69305;SDS011;56427;51.580;4.656;2023-02-18T05:38:57;35.80;;;10.13;;
69305;SDS011;56427;51.580;4.656;2023-02-18T05:41:23;39.10;;;11.90;;
69305;SDS011;56427;51.580;4.656;2023-02-18T05:43:48;37.90;;;10.97;;
69305;SDS011;56427;51.580;4.656;2023-02-18T05:46:32;32.75;;;10.38;;
69305;SDS011;56427;51.580;4.656;2023-02-18T05:48:57;31.27;;;10.50;;
69305;SDS011;56427;51.580;4.656;2023-02-18T05:51:23;30.33;;;9.57;;
69305;SDS011;56427;51.580;4.656;2023-02-18T05:53:48;29.67;;;9.30;;
69305;SDS011;56427;51.580;4.656;2023-02-18T05:56:14;30.87;;;10.20;;
69305;SDS011;56427;51.580;4.656;2023-02-18T05:58:39;31.83;;;9.90;;
69305;SDS011;56427;51.580;4.656;2023-02-18T06:01:04;33.43;;;10.03;;
69305;SDS011;56427;51.580;4.656;2023-02-18T06:03:29;29.40;;;10.43;;
69305;SDS011;56427;51.580;4.656;2023-02-18T06:05:55;34.47;;;10.37;;
69305;SDS011;56427;51.580;4.656;2023-02-18T06:08:20;31.43;;;10.10;;
69305;SDS011;56427;51.580;4.656;2023-02-18T06:10:46;34.40;;;10.70;;
69305;SDS011;56427;51.580;4.656;2023-02-18T06:13:11;35.30;;;10.25;;
69305;SDS011;56427;51.580;4.656;2023-02-18T06:15:37;33.70;;;10.27;;
69305;SDS011;56427;51.580;4.656;2023-02-18T06:18:03;32.15;;;9.98;;
69305;SDS011;56427;51.580;4.656;2023-02-18T06:20:29;24.02;;;9.38;;
69305;SDS011;56427;51.580;4.656;2023-02-18T06:22:54;25.80;;;10.30;;
69305;SDS011;56427;51.580;4.656;2023-02-18T06:25:20;27.47;;;8.80;;
69305;SDS011;56427;51.580;4.656;2023-02-18T06:27:45;28.37;;;9.53;;
69305;SDS011;56427;51.580;4.656;2023-02-18T06:30:10;21.47;;;8.63;;
69305;SDS011;56427;51.580;4.656;2023-02-18T06:32:36;20.83;;;8.40;;
69305;SDS011;56427;51.580;4.656;2023-02-18T06:35:01;22.87;;;8.73;;
69305;SDS011;56427;51.580;4.656;2023-02-18T06:37:27;26.35;;;10.05;;
69305;SDS011;56427;51.580;4.656;2023-02-18T06:39:52;29.10;;;10.88;;
69305;SDS011;56427;51.580;4.656;2023-02-18T06:42:18;28.70;;;10.23;;
69305;SDS011;56427;51.580;4.656;2023-02-18T06:44:43;25.00;;;9.27;;
69305;SDS011;56427;51.580;4.656;2023-02-18T06:47:08;25.73;;;9.80;;
69305;SDS011;56427;51.580;4.656;2023-02-18T06:49:33;31.63;;;10.97;;
69305;SDS011;56427;51.580;4.656;2023-02-18T06:52:00;24.55;;;9.32;;
69305;SDS011;56427;51.580;4.656;2023-02-18T06:54:26;25.93;;;9.53;;
69305;SDS011;56427;51.580;4.656;2023-02-18T06:56:51;24.27;;;9.47;;
69305;SDS011;56427;51.580;4.656;2023-02-18T06:59:16;28.33;;;9.07;;
69305;SDS011;56427;51.580;4.656;2023-02-18T07:01:42;25.20;;;10.18;;
69305;SDS011;56427;51.580;4.656;2023-02-18T07:04:07;31.73;;;9.70;;
69305;SDS011;56427;51.580;4.656;2023-02-18T07:06:32;27.33;;;9.63;;
69305;SDS011;56427;51.580;4.656;2023-02-18T07:08:58;26.50;;;9.60;;
69305;SDS011;56427;51.580;4.656;2023-02-18T07:11:23;21.57;;;9.13;;
69305;SDS011;56427;51.580;4.656;2023-02-18T07:13:49;27.10;;;8.50;;
69305;SDS011;56427;51.580;4.656;2023-02-18T07:16:14;31.90;;;10.17;;
69305;SDS011;56427;51.580;4.656;2023-02-18T07:18:40;30.57;;;9.80;;
69305;SDS011;56427;51.580;4.656;2023-02-18T07:21:05;26.27;;;9.63;;
69305;SDS011;56427;51.580;4.656;2023-02-18T07:23:30;27.00;;;9.35;;
69305;SDS011;56427;51.580;4.656;2023-02-18T07:26:10;21.77;;;8.15;;
69305;SDS011;56427;51.580;4.656;2023-02-18T07:28:36;19.63;;;7.07;;
69305;SDS011;56427;51.580;4.656;2023-02-18T07:31:02;26.02;;;7.45;;
69305;SDS011;56427;51.580;4.656;2023-02-18T07:33:28;25.13;;;7.10;;
69305;SDS011;56427;51.580;4.656;2023-02-18T07:35:54;31.07;;;7.93;;
69305;SDS011;56427;51.580;4.656;2023-02-18T07:38:20;20.70;;;6.45;;
69305;SDS011;56427;51.580;4.656;2023-02-18T07:40:47;23.60;;;5.75;;
69305;SDS011;56427;51.580;4.656;2023-02-18T07:43:13;20.70;;;4.87;;
69305;SDS011;56427;51.580;4.656;2023-02-18T07:45:38;30.67;;;6.43;;
69305;SDS011;56427;51.580;4.656;2023-02-18T07:48:03;29.60;;;6.23;;
69305;SDS011;56427;51.580;4.656;2023-02-18T07:50:29;21.77;;;5.03;;
69305;SDS011;56427;51.580;4.656;2023-02-18T07:52:59;14.80;;;4.60;;
69305;SDS011;56427;51.580;4.656;2023-02-18T07:55:25;20.37;;;4.53;;
69305;SDS011;56427;51.580;4.656;2023-02-18T07:58:10;27.30;;;4.60;;
69305;SDS011;56427;51.580;4.656;2023-02-18T08:00:36;19.27;;;4.60;;
69305;SDS011;56427;51.580;4.656;2023-02-18T08:03:01;19.77;;;4.53;;
69305;SDS011;56427;51.580;4.656;2023-02-18T08:05:27;22.37;;;4.20;;
69305;SDS011;56427;51.580;4.656;2023-02-18T08:07:52;14.50;;;3.40;;
69305;SDS011;56427;51.580;4.656;2023-02-18T08:10:18;21.13;;;4.15;;
69305;SDS011;56427;51.580;4.656;2023-02-18T08:12:43;19.93;;;3.40;;
69305;SDS011;56427;51.580;4.656;2023-02-18T08:15:08;14.93;;;3.23;;
69305;SDS011;56427;51.580;4.656;2023-02-18T08:17:34;13.20;;;2.77;;
69305;SDS011;56427;51.580;4.656;2023-02-18T08:19:59;17.17;;;3.30;;
69305;SDS011;56427;51.580;4.656;2023-02-18T08:22:24;12.63;;;2.80;;
69305;SDS011;56427;51.580;4.656;2023-02-18T08:24:50;20.23;;;3.57;;
69305;SDS011;56427;51.580;4.656;2023-02-18T08:27:18;18.17;;;3.00;;
69305;SDS011;56427;51.580;4.656;2023-02-18T08:29:44;15.50;;;3.00;;
69305;SDS011;56427;51.580;4.656;2023-02-18T08:32:09;13.13;;;2.70;;
69305;SDS011;56427;51.580;4.656;2023-02-18T08:34:34;18.08;;;3.08;;
69305;SDS011;56427;51.580;4.656;2023-02-18T08:37:00;14.47;;;3.57;;
69305;SDS011;56427;51.580;4.656;2023-02-18T08:39:26;19.70;;;3.33;;
69305;SDS011;56427;51.580;4.656;2023-02-18T08:41:51;12.77;;;2.47;;
69305;SDS011;56427;51.580;4.656;2023-02-18T08:44:16;11.67;;;2.43;;
69305;SDS011;56427;51.580;4.656;2023-02-18T08:46:42;12.83;;;3.03;;
69305;SDS011;56427;51.580;4.656;2023-02-18T08:49:07;23.13;;;3.00;;
69305;SDS011;56427;51.580;4.656;2023-02-18T08:51:33;15.40;;;2.77;;
69305;SDS011;56427;51.580;4.656;2023-02-18T08:53:58;15.95;;;3.10;;
69305;SDS011;56427;51.580;4.656;2023-02-18T08:56:25;14.13;;;3.13;;
69305;SDS011;56427;51.580;4.656;2023-02-18T08:58:51;12.32;;;3.40;;
69305;SDS011;56427;51.580;4.656;2023-02-18T09:01:16;16.07;;;3.13;;
69305;SDS011;56427;51.580;4.656;2023-02-18T09:03:42;11.13;;;2.50;;
69305;SDS011;56427;51.580;4.656;2023-02-18T09:06:07;12.30;;;2.60;;
69305;SDS011;56427;51.580;4.656;2023-02-18T09:08:33;10.82;;;2.40;;
69305;SDS011;56427;51.580;4.656;2023-02-18T09:10:59;10.50;;;2.33;;
69305;SDS011;56427;51.580;4.656;2023-02-18T09:13:28;13.82;;;2.55;;
69305;SDS011;56427;51.580;4.656;2023-02-18T09:16:00;12.30;;;2.27;;
69305;SDS011;56427;51.580;4.656;2023-02-18T09:18:33;11.50;;;2.22;;
69305;SDS011;56427;51.580;4.656;2023-02-18T09:21:02;12.65;;;2.38;;
69305;SDS011;56427;51.580;4.656;2023-02-18T09:23:29;13.83;;;2.20;;
69305;SDS011;56427;51.580;4.656;2023-02-18T09:25:56;11.70;;;2.00;;
69305;SDS011;56427;51.580;4.656;2023-02-18T09:28:22;16.30;;;2.90;;
69305;SDS011;56427;51.580;4.656;2023-02-18T09:30:48;16.25;;;2.72;;
69305;SDS011;56427;51.580;4.656;2023-02-18T09:33:14;11.23;;;2.50;;
69305;SDS011;56427;51.580;4.656;2023-02-18T09:35:41;10.95;;;2.25;;
69305;SDS011;56427;51.580;4.656;2023-02-18T09:38:08;16.50;;;2.72;;
69305;SDS011;56427;51.580;4.656;2023-02-18T09:40:36;14.50;;;2.45;;
69305;SDS011;56427;51.580;4.656;2023-02-18T09:43:06;9.37;;;2.23;;
69305;SDS011;56427;51.580;4.656;2023-02-18T09:45:38;13.50;;;2.30;;
69305;SDS011;56427;51.580;4.656;2023-02-18T09:48:03;9.63;;;2.20;;
69305;SDS011;56427;51.580;4.656;2023-02-18T09:50:31;10.90;;;2.17;;
69305;SDS011;56427;51.580;4.656;2023-02-18T09:52:58;10.82;;;2.78;;
69305;SDS011;56427;51.580;4.656;2023-02-18T09:58:03;12.50;;;2.67;;
69305;SDS011;56427;51.580;4.656;2023-02-18T10:00:32;12.00;;;2.05;;
69305;SDS011;56427;51.580;4.656;2023-02-18T10:05:40;10.23;;;2.10;;
69305;SDS011;56427;51.580;4.656;2023-02-18T10:08:18;14.02;;;2.20;;
69305;SDS011;56427;51.580;4.656;2023-02-18T10:10:48;11.15;;;2.05;;
69305;SDS011;56427;51.580;4.656;2023-02-18T10:13:15;13.90;;;2.50;;
69305;SDS011;56427;51.580;4.656;2023-02-18T10:15:42;10.43;;;2.78;;
69305;SDS011;56427;51.580;4.656;2023-02-18T10:20:57;13.93;;;2.60;;
69305;SDS011;56427;51.580;4.656;2023-02-18T10:23:36;9.73;;;3.20;;
69305;SDS011;56427;51.580;4.656;2023-02-18T10:26:06;11.65;;;3.35;;
69305;SDS011;56427;51.580;4.656;2023-02-18T10:28:37;13.05;;;3.58;;
69305;SDS011;56427;51.580;4.656;2023-02-18T10:31:04;12.70;;;3.57;;
69305;SDS011;56427;51.580;4.656;2023-02-18T10:33:35;10.57;;;3.08;;
69305;SDS011;56427;51.580;4.656;2023-02-18T10:36:40;9.43;;;3.30;;
69305;SDS011;56427;51.580;4.656;2023-02-18T10:50:51;11.10;;;3.50;;
69305;SDS011;56427;51.580;4.656;2023-02-18T10:55:51;16.80;;;3.70;;
69305;SDS011;56427;51.580;4.656;2023-02-18T10:58:23;12.95;;;4.00;;
69305;SDS011;56427;51.580;4.656;2023-02-18T11:00:52;13.23;;;4.10;;
69305;SDS011;56427;51.580;4.656;2023-02-18T11:03:22;12.77;;;3.45;;
69305;SDS011;56427;51.580;4.656;2023-02-18T11:05:51;10.40;;;3.63;;
69305;SDS011;56427;51.580;4.656;2023-02-18T11:08:19;9.68;;;3.65;;
69305;SDS011;56427;51.580;4.656;2023-02-18T11:10:48;8.73;;;3.17;;
69305;SDS011;56427;51.580;4.656;2023-02-18T11:13:15;9.25;;;2.95;;
69305;SDS011;56427;51.580;4.656;2023-02-18T11:20:59;7.50;;;2.77;;
69305;SDS011;56427;51.580;4.656;2023-02-18T11:23:26;16.50;;;3.17;;
69305;SDS011;56427;51.580;4.656;2023-02-18T11:25:53;8.57;;;2.30;;
69305;SDS011;56427;51.580;4.656;2023-02-18T11:31:02;9.10;;;2.83;;
69305;SDS011;56427;51.580;4.656;2023-02-18T11:38:55;9.80;;;2.33;;
69305;SDS011;56427;51.580;4.656;2023-02-18T11:41:31;13.02;;;2.38;;
69305;SDS011;56427;51.580;4.656;2023-02-18T11:43:59;10.17;;;2.00;;
69305;SDS011;56427;51.580;4.656;2023-02-18T11:46:27;6.25;;;1.90;;
69305;SDS011;56427;51.580;4.656;2023-02-18T11:48:53;9.02;;;1.92;;
69305;SDS011;56427;51.580;4.656;2023-02-18T11:51:20;12.60;;;2.47;;
69305;SDS011;56427;51.580;4.656;2023-02-18T11:53:56;13.52;;;2.90;;
69305;SDS011;56427;51.580;4.656;2023-02-18T11:56:35;7.68;;;1.92;;
69305;SDS011;56427;51.580;4.656;2023-02-18T11:59:02;7.38;;;1.75;;
69305;SDS011;56427;51.580;4.656;2023-02-18T12:04:12;5.20;;;1.60;;
69305;SDS011;56427;51.580;4.656;2023-02-18T12:09:19;8.73;;;1.70;;
69305;SDS011;56427;51.580;4.656;2023-02-18T12:12:00;13.98;;;2.10;;
69305;SDS011;56427;51.580;4.656;2023-02-18T12:14:30;10.93;;;2.17;;
69305;SDS011;56427;51.580;4.656;2023-02-18T12:31:24;10.90;;;1.83;;
69305;SDS011;56427;51.580;4.656;2023-02-18T12:34:24;8.95;;;1.95;;
69305;SDS011;56427;51.580;4.656;2023-02-18T12:37:14;14.17;;;2.23;;
69305;SDS011;56427;51.580;4.656;2023-02-18T12:43:12;12.20;;;1.80;;
69305;SDS011;56427;51.580;4.656;2023-02-18T12:46:09;10.23;;;2.85;;
69305;SDS011;56427;51.580;4.656;2023-02-18T12:48:44;12.50;;;2.55;;
69305;SDS011;56427;51.580;4.656;2023-02-18T12:51:32;14.60;;;2.63;;
69305;SDS011;56427;51.580;4.656;2023-02-18T13:05:30;10.70;;;2.07;;
69305;SDS011;56427;51.580;4.656;2023-02-18T13:13:32;9.98;;;2.22;;
69305;SDS011;56427;51.580;4.656;2023-02-18T13:16:08;10.82;;;2.10;;
69305;SDS011;56427;51.580;4.656;2023-02-18T13:18:38;9.50;;;2.37;;
69305;SDS011;56427;51.580;4.656;2023-02-18T13:21:14;12.05;;;2.20;;
69305;SDS011;56427;51.580;4.656;2023-02-18T13:23:57;11.23;;;2.13;;
69305;SDS011;56427;51.580;4.656;2023-02-18T13:26:27;14.27;;;2.50;;
69305;SDS011;56427;51.580;4.656;2023-02-18T13:32:16;9.93;;;2.30;;
69305;SDS011;56427;51.580;4.656;2023-02-18T13:35:03;9.55;;;2.17;;
69305;SDS011;56427;51.580;4.656;2023-02-18T13:40:09;11.87;;;2.30;;
69305;SDS011;56427;51.580;4.656;2023-02-18T13:42:38;12.07;;;2.55;;
69305;SDS011;56427;51.580;4.656;2023-02-18T13:45:04;13.33;;;2.00;;
69305;SDS011;56427;51.580;4.656;2023-02-18T13:47:46;12.18;;;2.10;;
69305;SDS011;56427;51.580;4.656;2023-02-18T13:50:24;12.45;;;2.30;;
69305;SDS011;56427;51.580;4.656;2023-02-18T13:58:15;10.48;;;2.60;;
69305;SDS011;56427;51.580;4.656;2023-02-18T14:00:48;8.77;;;2.08;;
69305;SDS011;56427;51.580;4.656;2023-02-18T14:05:54;11.83;;;2.17;;
69305;SDS011;56427;51.580;4.656;2023-02-18T14:08:33;14.25;;;3.00;;
69305;SDS011;56427;51.580;4.656;2023-02-18T14:13:39;9.55;;;2.00;;
69305;SDS011;56427;51.580;4.656;2023-02-18T14:16:07;10.95;;;2.22;;
69305;SDS011;56427;51.580;4.656;2023-02-18T14:26:06;10.77;;;1.90;;
69305;SDS011;56427;51.580;4.656;2023-02-18T14:30:59;16.07;;;2.27;;
69305;SDS011;56427;51.580;4.656;2023-02-18T14:42:27;10.02;;;1.90;;
69305;SDS011;56427;51.580;4.656;2023-02-18T14:50:58;17.60;;;3.00;;
69305;SDS011;56427;51.580;4.656;2023-02-18T14:53:25;8.77;;;1.73;;
69305;SDS011;56427;51.580;4.656;2023-02-18T14:55:52;10.60;;;2.65;;
69305;SDS011;56427;51.580;4.656;2023-02-18T14:58:29;12.32;;;2.63;;
69305;SDS011;56427;51.580;4.656;2023-02-18T15:03:45;13.13;;;2.03;;
69305;SDS011;56427;51.580;4.656;2023-02-18T15:06:22;11.05;;;2.55;;
69305;SDS011;56427;51.580;4.656;2023-02-18T15:08:58;9.88;;;2.42;;
69305;SDS011;56427;51.580;4.656;2023-02-18T15:11:38;17.42;;;2.72;;
69305;SDS011;56427;51.580;4.656;2023-02-18T15:14:09;8.88;;;1.90;;
69305;SDS011;56427;51.580;4.656;2023-02-18T15:16:40;10.80;;;2.33;;
69305;SDS011;56427;51.580;4.656;2023-02-18T15:19:11;12.43;;;2.22;;
69305;SDS011;56427;51.580;4.656;2023-02-18T15:21:42;11.65;;;2.00;;
69305;SDS011;56427;51.580;4.656;2023-02-18T15:26:59;12.23;;;2.25;;
69305;SDS011;56427;51.580;4.656;2023-02-18T15:29:33;11.03;;;2.00;;
69305;SDS011;56427;51.580;4.656;2023-02-18T15:32:00;9.43;;;1.85;;
69305;SDS011;56427;51.580;4.656;2023-02-18T15:34:34;9.30;;;2.10;;
69305;SDS011;56427;51.580;4.656;2023-02-18T15:37:02;11.45;;;2.58;;
69305;SDS011;56427;51.580;4.656;2023-02-18T15:39:30;11.27;;;2.40;;
69305;SDS011;56427;51.580;4.656;2023-02-18T15:42:00;11.17;;;2.07;;
69305;SDS011;56427;51.580;4.656;2023-02-18T15:44:32;12.82;;;2.55;;
69305;SDS011;56427;51.580;4.656;2023-02-18T15:47:04;14.13;;;2.80;;
69305;SDS011;56427;51.580;4.656;2023-02-18T15:49:32;8.98;;;2.17;;
69305;SDS011;56427;51.580;4.656;2023-02-18T15:52:01;15.95;;;2.80;;
69305;SDS011;56427;51.580;4.656;2023-02-18T15:54:27;11.77;;;3.03;;
69305;SDS011;56427;51.580;4.656;2023-02-18T15:56:54;17.00;;;3.58;;
69305;SDS011;56427;51.580;4.656;2023-02-18T15:59:28;11.02;;;3.22;;
69305;SDS011;56427;51.580;4.656;2023-02-18T16:02:07;9.23;;;3.33;;
69305;SDS011;56427;51.580;4.656;2023-02-18T16:04:39;12.82;;;3.40;;
69305;SDS011;56427;51.580;4.656;2023-02-18T16:07:18;10.80;;;3.33;;
69305;SDS011;56427;51.580;4.656;2023-02-18T16:09:47;17.55;;;4.70;;
69305;SDS011;56427;51.580;4.656;2023-02-18T16:12:18;18.25;;;5.20;;
69305;SDS011;56427;51.580;4.656;2023-02-18T16:14:55;22.55;;;4.97;;
69305;SDS011;56427;51.580;4.656;2023-02-18T16:17:23;14.73;;;6.00;;
69305;SDS011;56427;51.580;4.656;2023-02-18T16:20:51;16.88;;;5.78;;
69305;SDS011;56427;51.580;4.656;2023-02-18T16:22:46;20.23;;;6.30;;
69305;SDS011;56427;51.580;4.656;2023-02-18T16:25:19;17.38;;;6.90;;
69305;SDS011;56427;51.580;4.656;2023-02-18T16:30:26;21.43;;;7.07;;
69305;SDS011;56427;51.580;4.656;2023-02-18T16:32:53;19.38;;;7.55;;
69305;SDS011;56427;51.580;4.656;2023-02-18T16:35:20;17.90;;;7.90;;
69305;SDS011;56427;51.580;4.656;2023-02-18T16:37:47;19.98;;;8.80;;
69305;SDS011;56427;51.580;4.656;2023-02-18T16:42:48;19.03;;;9.53;;
69305;SDS011;56427;51.580;4.656;2023-02-18T16:45:14;31.77;;;9.60;;
69305;SDS011;56427;51.580;4.656;2023-02-18T16:47:47;20.73;;;8.88;;
69305;SDS011;56427;51.580;4.656;2023-02-18T16:50:17;25.37;;;8.43;;
69305;SDS011;56427;51.580;4.656;2023-02-18T16:52:44;22.77;;;9.23;;
69305;SDS011;56427;51.580;4.656;2023-02-18T16:55:20;22.42;;;8.93;;
69305;SDS011;56427;51.580;4.656;2023-02-18T16:57:47;23.75;;;9.45;;
69305;SDS011;56427;51.580;4.656;2023-02-18T17:00:13;22.90;;;9.47;;
69305;SDS011;56427;51.580;4.656;2023-02-18T17:02:39;18.58;;;8.57;;
69305;SDS011;56427;51.580;4.656;2023-02-18T17:05:04;23.23;;;9.33;;
69305;SDS011;56427;51.580;4.656;2023-02-18T17:07:30;23.55;;;10.07;;
69305;SDS011;56427;51.580;4.656;2023-02-18T17:09:56;25.57;;;10.03;;
69305;SDS011;56427;51.580;4.656;2023-02-18T17:12:23;25.20;;;10.45;;
69305;SDS011;56427;51.580;4.656;2023-02-18T17:14:49;27.48;;;11.32;;
69305;SDS011;56427;51.580;4.656;2023-02-18T17:17:14;26.30;;;10.80;;
69305;SDS011;56427;51.580;4.656;2023-02-18T17:19:41;24.55;;;10.90;;
69305;SDS011;56427;51.580;4.656;2023-02-18T17:22:08;22.00;;;10.67;;
69305;SDS011;56427;51.580;4.656;2023-02-18T17:24:37;23.08;;;11.02;;
69305;SDS011;56427;51.580;4.656;2023-02-18T17:27:02;21.00;;;10.33;;
69305;SDS011;56427;51.580;4.656;2023-02-18T17:29:27;31.57;;;12.07;;
69305;SDS011;56427;51.580;4.656;2023-02-18T17:31:53;21.97;;;11.43;;